Time;durP1;ratioP1;P1;durP2;ratioP2;P2;SDS_P1;SDS_P2;PMS_P1;PMS_P2;Temp;Humidity;BMP_temperature;BMP_pressure;BME280_temperature;BME280_humidity;BME280_pressure;Samples;Min_cycle;Max_cycle;Signal;HPM_P1;HPM_P2
2021/01/17 00:00:34;;;;;;;;;;;0.00;97.70;;;;;;4422234;32;20015;-78
2021/01/17 00:03:01;;;;;;;;;;;0.00;97.70;;;;;;4422492;32;20052;-78
2021/01/17 00:05:33;;;;;;;;;;;0.00;97.70;;;;;;4422330;32;20011;-78
2021/01/17 00:08:09;;;;;;;;;;;0.00;97.70;;;;;;4423896;32;20012;-78
2021/01/17 00:10:36;;;;;;;;;;;0.00;97.70;;;;;;4421114;32;42839;-78
2021/01/17 00:13:03;;;;;;;;;;;0.00;97.70;;;;;;4434007;32;33745;-78
2021/01/17 00:15:30;;;;;;;;;;;0.10;97.70;;;;;;4408789;32;38089;-78
2021/01/17 00:17:57;;;;;;;;;;;0.10;97.70;;;;;;4422306;32;34901;-78
2021/01/17 00:20:24;;;;;;;;;;;0.10;97.70;;;;;;4422700;32;36177;-78
2021/01/17 00:22:54;;;;;;;;;;;0.10;97.70;;;;;;4423589;32;20007;-78
2021/01/17 00:25:21;;;;;;;;;;;0.10;97.70;;;;;;4423460;32;20018;-78
2021/01/17 00:27:51;;;;;;;;;;;0.10;97.70;;;;;;4421475;32;39683;-78
2021/01/17 00:30:21;;;;;;;;;;;0.10;97.70;;;;;;4423161;32;20011;-78
2021/01/17 00:32:49;;;;;;;;;;;0.10;97.60;;;;;;4423196;32;20355;-78
2021/01/17 00:35:17;;;;;;;;;;;0.10;97.60;;;;;;4423358;32;20017;-78
2021/01/17 00:37:50;;;;;;;;;;;0.10;97.60;;;;;;4422619;32;20076;-78
2021/01/17 00:40:17;;;;;;;;;;;0.20;97.70;;;;;;4422382;32;20141;-78
2021/01/17 00:42:47;;;;;;;;;;;0.20;97.70;;;;;;4422723;32;20003;-78
2021/01/17 00:45:15;;;;;;;;;;;0.20;97.70;;;;;;4421492;32;19999;-78
2021/01/17 00:47:42;;;;;;;;;;;0.10;97.70;;;;;;4421561;32;20420;-78
2021/01/17 00:50:09;;;;;;;;;;;0.10;97.70;;;;;;4422580;32;20371;-78
2021/01/17 00:52:36;;;;;;;;;;;0.20;97.70;;;;;;4423349;32;20004;-78
2021/01/17 00:55:03;;;;;;;;;;;0.20;97.70;;;;;;4423025;32;20018;-78
2021/01/17 00:57:32;;;;;;;;;;;0.20;97.80;;;;;;4422673;32;20015;-78
2021/01/17 01:00:03;;;;;;;;;;;0.20;97.80;;;;;;4423125;32;20019;-78
2021/01/17 01:02:30;;;;;;;;;;;0.20;97.80;;;;;;4408929;32;20004;-78
2021/01/17 01:04:57;;;;;;;;;;;0.20;97.80;;;;;;4420869;32;40867;-78
2021/01/17 01:07:25;;;;;;;;;;;0.20;97.80;;;;;;4421958;32;36205;-78
2021/01/17 01:09:52;;;;;;;;;;;0.20;98.10;;;;;;4421441;32;37968;-78
2021/01/17 01:12:18;;;;;;;;;;;0.20;97.80;;;;;;4422062;32;40057;-78
2021/01/17 01:14:45;;;;;;;;;;;0.20;97.80;;;;;;4421917;32;20011;-78
2021/01/17 01:17:11;;;;;;;;;;;0.20;97.80;;;;;;4421537;32;40510;-78
2021/01/17 01:19:38;;;;;;;;;;;0.20;97.80;;;;;;4433185;32;41097;-78
2021/01/17 01:22:05;;;;;;;;;;;0.20;97.80;;;;;;4422200;32;20030;-79
2021/01/17 01:24:31;;;;;;;;;;;0.20;97.80;;;;;;4420226;32;38655;-78
2021/01/17 01:26:58;;;;;;;;;;;0.20;97.90;;;;;;4419463;32;32428;-79
2021/01/17 01:29:24;;;;;;;;;;;0.30;98.00;;;;;;4420042;32;39962;-78
2021/01/17 01:31:51;;;;;;;;;;;0.20;97.90;;;;;;4431642;32;40242;-79
2021/01/17 01:34:18;;;;;;;;;;;0.30;98.00;;;;;;4418695;32;40532;-78
2021/01/17 01:36:44;;;;;;;;;;;0.30;98.10;;;;;;4419989;32;37611;-80
2021/01/17 01:39:12;;;;;;;;;;;0.30;98.10;;;;;;4421296;32;20045;-78
2021/01/17 01:41:40;;;;;;;;;;;0.30;98.20;;;;;;4420075;32;42976;-78
2021/01/17 01:44:07;;;;;;;;;;;0.30;98.20;;;;;;4419972;32;35319;-78
2021/01/17 01:46:36;;;;;;;;;;;0.30;98.20;;;;;;4421487;32;36167;-78
2021/01/17 01:49:03;;;;;;;;;;;0.30;98.30;;;;;;4420015;32;39355;-78
2021/01/17 01:51:29;;;;;;;;;;;0.30;98.40;;;;;;4419981;32;41319;-78
2021/01/17 01:53:57;;;;;;;;;;;0.30;98.30;;;;;;4420912;32;37279;-78
2021/01/17 01:56:24;;;;;;;;;;;0.30;98.40;;;;;;4421384;32;38657;-78
2021/01/17 01:58:52;;;;;;;;;;;0.30;98.40;;;;;;4421442;32;36195;-78
2021/01/17 02:01:19;;;;;;;;;;;0.30;98.40;;;;;;4420570;32;35637;-78
2021/01/17 02:03:46;;;;;;;;;;;0.30;98.50;;;;;;4421247;32;37681;-78
2021/01/17 02:06:18;;;;;;;;;;;0.30;98.50;;;;;;4420003;32;36370;-78
2021/01/17 02:08:50;;;;;;;;;;;0.30;98.50;;;;;;4407236;32;40807;-78
2021/01/17 02:11:31;;;;;;;;;;;0.30;98.50;;;;;;4419387;32;38641;-78
2021/01/17 02:14:06;;;;;;;;;;;0.40;98.50;;;;;;4419593;32;43348;-78
2021/01/17 02:16:34;;;;;;;;;;;0.30;98.50;;;;;;4421171;32;34705;-78
2021/01/17 02:19:05;;;;;;;;;;;0.40;98.50;;;;;;4420196;32;39495;-78
2021/01/17 02:21:32;;;;;;;;;;;0.40;98.50;;;;;;4421179;32;23577;-78
2021/01/17 02:24:03;;;;;;;;;;;0.40;98.50;;;;;;4431915;32;43720;-78
2021/01/17 02:26:30;;;;;;;;;;;0.40;98.50;;;;;;4408032;32;20317;-78
2021/01/17 02:28:57;;;;;;;;;;;0.40;98.50;;;;;;4421654;32;20019;-78
2021/01/17 02:31:25;;;;;;;;;;;0.40;98.50;;;;;;4422127;32;20059;-78
2021/01/17 02:33:52;;;;;;;;;;;0.40;98.50;;;;;;4421514;32;20007;-78
2021/01/17 02:36:34;;;;;;;;;;;0.40;98.50;;;;;;4421483;32;20018;-78
2021/01/17 02:39:24;;;;;;;;;;;0.40;98.50;;;;;;4421683;32;20003;-78
2021/01/17 02:41:57;;;;;;;;;;;0.40;98.50;;;;;;4419143;32;20003;-78
2021/01/17 02:44:27;;;;;;;;;;;0.50;98.60;;;;;;4421140;32;20026;-78
2021/01/17 02:46:54;;;;;;;;;;;0.50;98.60;;;;;;4433011;32;20018;-78
2021/01/17 02:49:21;;;;;;;;;;;0.50;98.60;;;;;;4420761;32;35274;-78
2021/01/17 02:51:48;;;;;;;;;;;0.50;98.60;;;;;;4420458;32;39508;-78
2021/01/17 02:54:20;;;;;;;;;;;0.50;98.60;;;;;;4421409;32;20015;-78
2021/01/17 02:56:50;;;;;;;;;;;0.50;98.60;;;;;;4421865;32;20049;-78
2021/01/17 02:59:21;;;;;;;;;;;0.50;98.70;;;;;;4421745;32;20069;-78
2021/01/17 03:01:48;;;;;;;;;;;0.50;98.70;;;;;;4420424;32;20474;-78
2021/01/17 03:04:30;;;;;;;;;;;0.50;98.70;;;;;;4421560;32;20026;-78
2021/01/17 03:06:57;;;;;;;;;;;0.50;98.70;;;;;;4407789;32;20021;-78
2021/01/17 03:09:32;;;;;;;;;;;0.50;98.70;;;;;;4420119;32;20000;-78
2021/01/17 03:12:03;;;;;;;;;;;0.50;98.70;;;;;;4420093;32;20007;-78
2021/01/17 03:14:35;;;;;;;;;;;0.60;98.80;;;;;;4420164;32;19992;-78
2021/01/17 03:17:11;;;;;;;;;;;0.50;98.70;;;;;;4420274;32;38562;-78
2021/01/17 03:19:37;;;;;;;;;;;0.60;98.80;;;;;;4432022;32;41462;-78
2021/01/17 03:22:04;;;;;;;;;;;0.60;98.70;;;;;;4420179;32;37206;-78
2021/01/17 03:24:31;;;;;;;;;;;0.60;98.80;;;;;;4418805;32;40635;-78
2021/01/17 03:26:57;;;;;;;;;;;0.60;98.70;;;;;;4420192;32;38988;-78
2021/01/17 03:29:24;;;;;;;;;;;0.60;98.80;;;;;;4420473;32;32811;-78
2021/01/17 03:31:50;;;;;;;;;;;0.60;98.80;;;;;;4422659;32;37151;-78
2021/01/17 03:34:17;;;;;;;;;;;0.60;98.80;;;;;;4422192;32;41829;-78
2021/01/17 03:36:44;;;;;;;;;;;0.60;98.80;;;;;;4409511;32;37925;-78
2021/01/17 03:39:10;;;;;;;;;;;0.60;98.90;;;;;;4421513;32;44365;-78
2021/01/17 03:41:37;;;;;;;;;;;0.60;98.80;;;;;;4423322;32;31129;-78
2021/01/17 03:44:03;;;;;;;;;;;0.60;98.80;;;;;;4423184;32;39161;-78
2021/01/17 03:46:31;;;;;;;;;;;0.70;98.80;;;;;;4422801;32;35676;-78
2021/01/17 03:49:00;;;;;;;;;;;0.60;98.80;;;;;;4409891;32;23498;-78
2021/01/17 03:51:27;;;;;;;;;;;0.70;98.90;;;;;;4421912;32;28113;-78
2021/01/17 03:53:54;;;;;;;;;;;0.70;98.90;;;;;;4421795;32;35181;-78
2021/01/17 03:56:24;;;;;;;;;;;0.70;99.00;;;;;;4421669;32;31210;-78
2021/01/17 03:58:50;;;;;;;;;;;0.70;99.00;;;;;;4421389;32;37376;-79
2021/01/17 04:01:17;;;;;;;;;;;0.70;99.00;;;;;;4422839;32;27368;-78
2021/01/17 04:03:44;;;;;;;;;;;0.80;99.00;;;;;;4422825;32;33572;-78
2021/01/17 04:06:11;;;;;;;;;;;0.70;99.10;;;;;;4422594;32;38610;-78
2021/01/17 04:08:40;;;;;;;;;;;0.80;99.10;;;;;;4422178;32;24748;-78
2021/01/17 04:11:07;;;;;;;;;;;0.80;99.00;;;;;;4423359;32;20074;-78
2021/01/17 04:13:34;;;;;;;;;;;0.80;98.90;;;;;;4421752;32;34723;-79
2021/01/17 04:16:03;;;;;;;;;;;0.80;98.90;;;;;;4421396;32;29555;-79
2021/01/17 04:18:33;;;;;;;;;;;0.80;99.00;;;;;;4422869;32;37535;-80
2021/01/17 04:21:02;;;;;;;;;;;0.80;99.00;;;;;;4421445;32;44174;-80
2021/01/17 04:23:29;;;;;;;;;;;0.80;99.00;;;;;;4422670;32;31599;-80
2021/01/17 04:25:56;;;;;;;;;;;0.80;99.00;;;;;;4422722;32;35401;-80
2021/01/17 04:28:22;;;;;;;;;;;0.90;99.10;;;;;;4422082;32;40016;-80
2021/01/17 04:30:49;;;;;;;;;;;0.80;99.00;;;;;;4422124;32;39665;-80
2021/01/17 04:33:19;;;;;;;;;;;0.90;99.10;;;;;;4421075;32;40258;-81
2021/01/17 04:35:46;;;;;;;;;;;0.90;99.00;;;;;;4422294;32;36759;-81
2021/01/17 04:38:13;;;;;;;;;;;0.90;99.10;;;;;;4422181;32;36682;-81
2021/01/17 04:40:39;;;;;;;;;;;0.90;99.10;;;;;;4408080;32;32990;-80
2021/01/17 04:43:07;;;;;;;;;;;0.90;99.10;;;;;;4422501;32;19999;-82
2021/01/17 04:45:38;;;;;;;;;;;0.90;99.10;;;;;;4422910;32;20019;-82
2021/01/17 04:48:06;;;;;;;;;;;1.00;99.10;;;;;;4422411;32;20387;-82
2021/01/17 04:50:33;;;;;;;;;;;1.00;99.20;;;;;;4423385;32;20067;-83
2021/01/17 04:53:06;;;;;;;;;;;1.00;99.10;;;;;;4409318;32;19996;-82
2021/01/17 04:55:37;;;;;;;;;;;1.00;99.10;;;;;;4423291;32;20003;-82
2021/01/17 04:58:09;;;;;;;;;;;1.00;99.10;;;;;;4410276;32;20078;-82
2021/01/17 05:00:42;;;;;;;;;;;1.00;99.20;;;;;;4423249;32;20022;-82
2021/01/17 05:03:15;;;;;;;;;;;1.00;99.20;;;;;;4421474;32;20055;-83
2021/01/17 05:05:54;;;;;;;;;;;1.00;99.20;;;;;;4423186;32;20038;-84
2021/01/17 05:08:27;;;;;;;;;;;1.00;99.20;;;;;;4423172;32;20351;-82
2021/01/17 05:11:04;;;;;;;;;;;1.00;99.20;;;;;;4422847;32;20051;-84
2021/01/17 05:13:35;;;;;;;;;;;1.10;99.20;;;;;;4420619;32;40573;-83
2021/01/17 05:16:07;;;;;;;;;;;1.10;99.20;;;;;;4408780;32;20003;-83
2021/01/17 05:18:39;;;;;;;;;;;1.10;99.30;;;;;;4422227;32;24592;-84
2021/01/17 05:21:12;;;;;;;;;;;1.10;99.20;;;;;;4422360;32;26091;-86
2021/01/17 05:23:45;;;;;;;;;;;1.10;99.20;;;;;;4422277;32;23519;-85
2021/01/17 05:26:12;;;;;;;;;;;1.10;99.30;;;;;;4433770;32;32808;-84
2021/01/17 05:28:39;;;;;;;;;;;1.10;99.20;;;;;;4421625;32;24554;-85
2021/01/17 05:31:13;;;;;;;;;;;1.10;99.20;;;;;;4421940;32;26363;-84
2021/01/17 05:33:39;;;;;;;;;;;1.20;99.20;;;;;;4421584;32;32205;-84
2021/01/17 05:36:19;;;;;;;;;;;1.10;99.10;;;;;;4421575;32;21885;-84
2021/01/17 05:39:06;;;;;;;;;;;1.20;99.20;;;;;;4420512;32;34009;-85
2021/01/17 05:41:38;;;;;;;;;;;1.20;99.20;;;;;;4422590;32;20011;-84
2021/01/17 05:44:10;;;;;;;;;;;1.20;99.30;;;;;;4421728;32;20033;-85
2021/01/17 05:46:40;;;;;;;;;;;1.20;99.30;;;;;;4434078;32;19995;-86
2021/01/17 05:49:11;;;;;;;;;;;1.20;99.40;;;;;;4422614;32;20459;-86
2021/01/17 05:51:38;;;;;;;;;;;1.20;99.30;;;;;;4421237;32;20520;-87
2021/01/17 05:54:09;;;;;;;;;;;1.20;99.30;;;;;;4421900;32;20067;-86
2021/01/17 05:56:39;;;;;;;;;;;1.20;99.30;;;;;;4421150;32;19995;-86
2021/01/17 05:59:08;;;;;;;;;;;1.20;99.20;;;;;;4421659;32;25050;-87
2021/01/17 06:01:35;;;;;;;;;;;1.30;99.20;;;;;;4419991;32;29394;-88
2021/01/17 06:04:12;;;;;;;;;;;1.30;99.20;;;;;;4421695;32;24552;-87
2021/01/17 06:06:42;;;;;;;;;;;1.30;99.30;;;;;;4421426;32;29248;-87
2021/01/17 06:09:09;;;;;;;;;;;1.30;99.20;;;;;;4420858;32;34427;-86
2021/01/17 06:11:36;;;;;;;;;;;1.30;99.20;;;;;;4419602;32;40276;-85
2021/01/17 06:14:03;;;;;;;;;;;1.30;99.20;;;;;;4420638;32;35538;-85
2021/01/17 06:16:31;;;;;;;;;;;1.30;99.20;;;;;;4421055;32;38439;-86
2021/01/17 06:19:00;;;;;;;;;;;1.30;99.20;;;;;;4422157;32;20017;-86
2021/01/17 06:21:30;;;;;;;;;;;1.30;99.20;;;;;;4421695;32;20063;-87
2021/01/17 06:24:05;;;;;;;;;;;1.30;99.20;;;;;;4421093;32;20014;-87
2021/01/17 06:26:32;;;;;;;;;;;1.30;99.30;;;;;;4421036;32;38567;-87
2021/01/17 06:29:04;;;;;;;;;;;1.40;99.30;;;;;;4420772;32;20019;-87
2021/01/17 06:31:33;;;;;;;;;;;1.30;99.30;;;;;;4420874;32;20011;-88
2021/01/17 06:34:05;;;;;;;;;;;1.30;99.30;;;;;;4420754;32;20014;-87
2021/01/17 06:36:32;;;;;;;;;;;1.30;99.30;;;;;;4422118;32;20011;-89
2021/01/17 06:38:58;;;;;;;;;;;1.40;99.30;;;;;;4422024;32;20059;-89
2021/01/17 06:41:36;;;;;;;;;;;1.40;99.30;;;;;;4421653;32;20053;-90
2021/01/17 06:44:10;;;;;;;;;;;1.40;99.30;;;;;;4421816;32;20044;-90
2021/01/17 06:46:42;;;;;;;;;;;1.40;99.30;;;;;;4420702;32;20006;-90
2021/01/17 06:49:23;;;;;;;;;;;1.40;99.30;;;;;;4420769;32;20043;-90
2021/01/17 06:51:50;;;;;;;;;;;1.40;99.30;;;;;;4419933;32;27065;-90
2021/01/17 06:54:18;;;;;;;;;;;1.40;99.20;;;;;;4421717;32;20004;-89
2021/01/17 06:56:48;;;;;;;;;;;1.40;99.20;;;;;;4421797;32;20372;-90
2021/01/17 06:59:33;;;;;;;;;;;1.40;99.20;;;;;;4421408;32;20383;-89
2021/01/17 07:02:29;;;;;;;;;;;1.40;99.20;;;;;;4407264;32;20443;-88
2021/01/17 07:05:11;;;;;;;;;;;1.50;99.20;;;;;;4420511;32;35950;-88
2021/01/17 07:07:45;;;;;;;;;;;1.40;99.20;;;;;;4423884;32;20067;-88
2021/01/17 07:10:20;;;;;;;;;;;1.40;99.20;;;;;;4424739;32;20015;-89
2021/01/17 07:13:05;;;;;;;;;;;1.50;99.20;;;;;;4423809;32;20056;-89
2021/01/17 07:15:33;;;;;;;;;;;1.50;99.20;;;;;;4424730;32;20004;-89
2021/01/17 07:18:02;;;;;;;;;;;1.50;99.20;;;;;;4424480;32;20004;-89
2021/01/17 07:20:36;;;;;;;;;;;1.50;99.20;;;;;;4423524;32;20058;-88
2021/01/17 07:23:06;;;;;;;;;;;1.50;99.20;;;;;;4424576;32;20059;-88
2021/01/17 07:25:36;;;;;;;;;;;1.50;99.20;;;;;;4424489;32;20007;-87
2021/01/17 07:28:12;;;;;;;;;;;1.50;99.20;;;;;;4422567;32;31256;-87
2021/01/17 07:30:44;;;;;;;;;;;1.60;99.20;;;;;;4423927;32;20009;-86
2021/01/17 07:33:14;;;;;;;;;;;1.60;99.20;;;;;;4423365;32;20054;-85
2021/01/17 07:35:45;;;;;;;;;;;1.60;99.20;;;;;;4424273;32;20052;-87
2021/01/17 07:38:14;;;;;;;;;;;1.60;99.30;;;;;;4411021;32;20448;-89
2021/01/17 07:40:52;;;;;;;;;;;1.70;99.30;;;;;;4422692;32;20050;-89
2021/01/17 07:43:41;;;;;;;;;;;1.60;99.30;;;;;;4424541;32;20003;-89
2021/01/17 07:46:12;;;;;;;;;;;1.70;99.20;;;;;;4423182;32;39097;-91
2021/01/17 07:48:43;;;;;;;;;;;1.70;99.20;;;;;;4423577;32;26059;-89
2021/01/17 07:51:10;;;;;;;;;;;1.70;99.30;;;;;;4422880;32;26767;-89
2021/01/17 07:53:37;;;;;;;;;;;1.80;99.40;;;;;;4422875;32;28000;-87
2021/01/17 07:56:11;;;;;;;;;;;1.80;99.40;;;;;;4422833;32;20059;-88
2021/01/17 07:58:43;;;;;;;;;;;1.80;99.30;;;;;;4424259;32;20479;-86
2021/01/17 08:01:29;;;;;;;;;;;1.80;99.40;;;;;;4422847;32;19996;-87
2021/01/17 08:04:17;;;;;;;;;;;1.80;99.30;;;;;;4435996;32;20371;-86
2021/01/17 08:06:47;;;;;;;;;;;1.90;99.30;;;;;;4420028;32;34283;-87
2021/01/17 08:09:14;;;;;;;;;;;1.90;99.40;;;;;;4423126;32;29812;-86
2021/01/17 08:11:51;;;;;;;;;;;1.90;99.30;;;;;;4422941;32;34442;-87
2021/01/17 08:14:36;;;;;;;;;;;1.90;99.30;;;;;;4422282;32;20027;-86
2021/01/17 08:17:04;;;;;;;;;;;1.90;99.30;;;;;;4421431;32;34257;-85
2021/01/17 08:19:34;;;;;;;;;;;1.90;99.20;;;;;;4423315;32;20019;-84
2021/01/17 08:22:19;;;;;;;;;;;1.90;99.20;;;;;;4422527;32;20063;-83
2021/01/17 08:25:02;;;;;;;;;;;2.00;99.30;;;;;;4423287;32;32481;-84
2021/01/17 08:27:35;;;;;;;;;;;1.90;99.20;;;;;;4434321;32;40541;-84
2021/01/17 08:30:10;;;;;;;;;;;2.00;99.30;;;;;;4422753;32;37724;-83
2021/01/17 08:32:44;;;;;;;;;;;2.00;99.20;;;;;;4408548;32;34474;-83
2021/01/17 08:35:20;;;;;;;;;;;2.00;99.20;;;;;;4422216;32;20077;-83
2021/01/17 08:37:54;;;;;;;;;;;1.90;99.30;;;;;;4422486;32;37602;-84
2021/01/17 08:40:27;;;;;;;;;;;2.00;99.30;;;;;;4408507;32;39073;-84
2021/01/17 08:43:01;;;;;;;;;;;2.00;99.30;;;;;;4421864;32;20333;-84
2021/01/17 08:45:27;;;;;;;;;;;2.00;99.20;;;;;;4409854;32;19995;-85
2021/01/17 08:47:55;;;;;;;;;;;2.00;99.20;;;;;;4423190;32;20059;-85
2021/01/17 08:50:32;;;;;;;;;;;2.00;99.20;;;;;;4422787;32;20015;-86
2021/01/17 08:53:10;;;;;;;;;;;2.00;99.20;;;;;;4422609;32;20074;-85
2021/01/17 08:55:37;;;;;;;;;;;2.00;99.20;;;;;;4421309;32;20371;-87
2021/01/17 08:58:04;;;;;;;;;;;2.00;99.60;;;;;;4423276;32;20015;-86
2021/01/17 09:01:04;;;;;;;;;;;2.00;99.30;;;;;;4423228;32;20007;-85
2021/01/17 09:03:36;;;;;;;;;;;2.10;99.40;;;;;;4405245;32;20015;-85
2021/01/17 09:06:06;;;;;;;;;;;2.10;99.30;;;;;;4423065;32;20004;-86
2021/01/17 09:08:33;;;;;;;;;;;2.10;99.20;;;;;;4422001;32;20388;-85
2021/01/17 09:11:02;;;;;;;;;;;2.10;99.20;;;;;;4422953;32;20388;-86
2021/01/17 09:13:30;;;;;;;;;;;2.10;99.20;;;;;;4422981;32;20063;-85
2021/01/17 09:16:04;;;;;;;;;;;2.10;99.20;;;;;;4421257;32;20014;-85
2021/01/17 09:18:35;;;;;;;;;;;2.10;99.30;;;;;;4421994;32;20045;-84
2021/01/17 09:21:05;;;;;;;;;;;2.10;99.30;;;;;;4421769;32;20051;-84
2021/01/17 09:23:36;;;;;;;;;;;2.10;99.40;;;;;;4408812;32;20056;-85
2021/01/17 09:26:06;;;;;;;;;;;2.20;99.40;;;;;;4421606;32;20011;-85
2021/01/17 09:28:37;;;;;;;;;;;2.20;99.30;;;;;;4422026;32;20022;-85
2021/01/17 09:31:04;;;;;;;;;;;2.20;99.30;;;;;;4409035;32;19987;-86
2021/01/17 09:33:35;;;;;;;;;;;2.20;99.20;;;;;;4422306;32;19995;-86
2021/01/17 09:36:07;;;;;;;;;;;2.20;99.30;;;;;;4423119;32;20023;-85
2021/01/17 09:38:34;;;;;;;;;;;2.20;99.30;;;;;;4422611;32;20063;-85
2021/01/17 09:41:00;;;;;;;;;;;2.20;99.30;;;;;;4408929;32;20025;-85
2021/01/17 09:43:27;;;;;;;;;;;2.20;99.30;;;;;;4434307;32;20392;-87
2021/01/17 09:45:58;;;;;;;;;;;2.20;99.30;;;;;;4422569;32;20019;-84
2021/01/17 09:48:25;;;;;;;;;;;2.20;99.40;;;;;;4408630;32;20004;-85
2021/01/17 09:50:52;;;;;;;;;;;2.30;99.50;;;;;;4421861;32;20017;-85
2021/01/17 09:53:19;;;;;;;;;;;2.30;99.50;;;;;;4421798;32;20022;-84
2021/01/17 09:55:46;;;;;;;;;;;2.30;99.40;;;;;;4421182;32;20051;-84
2021/01/17 09:58:13;;;;;;;;;;;2.30;99.40;;;;;;4422211;32;20051;-84
2021/01/17 10:00:41;;;;;;;;;;;2.30;99.30;;;;;;4419725;32;20428;-83
2021/01/17 10:03:12;;;;;;;;;;;2.30;99.30;;;;;;4420828;32;20037;-85
2021/01/17 10:05:40;;;;;;;;;;;2.30;99.30;;;;;;4420541;32;20066;-87
2021/01/17 10:08:12;;;;;;;;;;;2.40;99.40;;;;;;4419925;32;20062;-84
2021/01/17 10:10:39;;;;;;;;;;;2.40;99.40;;;;;;4420170;32;20025;-85
2021/01/17 10:13:07;;;;;;;;;;;2.40;99.40;;;;;;4431661;32;20000;-86
2021/01/17 10:15:39;;;;;;;;;;;2.40;99.40;;;;;;4433092;32;20013;-86
2021/01/17 10:18:07;;;;;;;;;;;2.40;99.50;;;;;;4421830;32;20066;-87
2021/01/17 10:20:38;;;;;;;;;;;2.50;99.50;;;;;;4421905;32;20000;-87
2021/01/17 10:23:07;;;;;;;;;;;2.50;99.60;;;;;;4422184;32;20003;-85
2021/01/17 10:25:36;;;;;;;;;;;2.50;99.60;;;;;;4421909;32;20008;-88
2021/01/17 10:28:07;;;;;;;;;;;2.50;99.60;;;;;;4421130;32;20008;-85
2021/01/17 10:30:35;;;;;;;;;;;2.50;99.60;;;;;;4421555;32;20400;-84
2021/01/17 10:33:09;;;;;;;;;;;2.60;99.60;;;;;;4421489;32;20004;-85
2021/01/17 10:35:37;;;;;;;;;;;2.60;99.50;;;;;;4420126;32;20015;-84
2021/01/17 10:38:09;;;;;;;;;;;2.50;99.50;;;;;;4420624;32;20018;-84
2021/01/17 10:40:39;;;;;;;;;;;2.60;99.50;;;;;;4420561;32;20004;-84
2021/01/17 10:43:12;;;;;;;;;;;2.60;99.50;;;;;;4421922;32;20017;-84
2021/01/17 10:45:44;;;;;;;;;;;2.60;99.50;;;;;;4420360;32;20098;-83
2021/01/17 10:48:15;;;;;;;;;;;2.60;99.40;;;;;;4421170;32;20007;-84
2021/01/17 10:50:42;;;;;;;;;;;2.60;99.40;;;;;;4420434;32;20014;-86
2021/01/17 10:53:10;;;;;;;;;;;2.60;99.50;;;;;;4420632;32;20019;-84
2021/01/17 10:55:40;;;;;;;;;;;2.60;99.50;;;;;;4421418;32;20015;-84
2021/01/17 10:58:12;;;;;;;;;;;2.60;99.50;;;;;;4420488;32;20015;-86
2021/01/17 11:00:52;;;;;;;;;;;2.60;99.50;;;;;;4421316;32;20096;-84
2021/01/17 11:03:29;;;;;;;;;;;2.60;99.40;;;;;;4421307;32;20126;-84
2021/01/17 11:06:23;;;;;;;;;;;2.60;99.40;;;;;;4420355;32;20352;-86
2021/01/17 11:08:58;;;;;;;;;;;2.60;99.40;;;;;;4419313;32;20078;-85
2021/01/17 11:11:27;;;;;;;;;;;2.60;99.40;;;;;;4421441;32;20000;-87
2021/01/17 11:14:05;;;;;;;;;;;2.70;99.50;;;;;;4420802;32;20439;-86
2021/01/17 11:16:35;;;;;;;;;;;2.70;99.50;;;;;;4420660;32;20380;-86
2021/01/17 11:19:08;;;;;;;;;;;2.70;99.50;;;;;;4421125;32;20012;-86
2021/01/17 11:21:35;;;;;;;;;;;2.70;99.60;;;;;;4420379;32;20014;-88
2021/01/17 11:24:02;;;;;;;;;;;2.80;99.50;;;;;;4419940;32;20459;-87
2021/01/17 11:26:28;;;;;;;;;;;2.80;99.60;;;;;;4420928;32;20021;-86
2021/01/17 11:28:59;;;;;;;;;;;2.80;99.50;;;;;;4420091;32;20044;-87
2021/01/17 11:31:26;;;;;;;;;;;2.90;99.60;;;;;;4421253;32;20021;-86
2021/01/17 11:33:53;;;;;;;;;;;2.90;99.60;;;;;;4419967;32;20006;-86
2021/01/17 11:36:23;;;;;;;;;;;2.90;99.50;;;;;;4420999;32;20055;-86
2021/01/17 11:38:53;;;;;;;;;;;2.90;99.50;;;;;;4420381;32;20071;-86
2021/01/17 11:41:21;;;;;;;;;;;2.90;99.60;;;;;;4420368;32;20017;-87
2021/01/17 11:44:05;;;;;;;;;;;3.00;99.60;;;;;;4421205;32;20012;-86
2021/01/17 11:46:32;;;;;;;;;;;3.00;99.60;;;;;;4420966;32;20015;-86
2021/01/17 11:49:02;;;;;;;;;;;3.00;99.60;;;;;;4420007;32;20069;-85
2021/01/17 11:51:35;;;;;;;;;;;3.10;99.50;;;;;;4421308;32;20019;-84
2021/01/17 11:54:08;;;;;;;;;;;3.10;99.60;;;;;;4424351;32;20008;-86
2021/01/17 11:56:35;;;;;;;;;;;3.10;99.60;;;;;;4422583;32;20351;-85
2021/01/17 11:59:02;;;;;;;;;;;3.10;99.60;;;;;;4424175;32;20075;-85
2021/01/17 12:01:29;;;;;;;;;;;3.10;99.60;;;;;;4422598;32;20059;-84
2021/01/17 12:04:00;;;;;;;;;;;3.20;99.60;;;;;;4423892;32;20008;-83
2021/01/17 12:06:33;;;;;;;;;;;3.20;99.60;;;;;;4423100;32;20011;-84
2021/01/17 12:09:09;;;;;;;;;;;3.20;99.50;;;;;;4423956;32;20067;-84
2021/01/17 12:11:37;;;;;;;;;;;3.20;99.50;;;;;;4423706;32;19996;-84
2021/01/17 12:14:06;;;;;;;;;;;3.20;99.50;;;;;;4423636;32;20007;-85
2021/01/17 12:16:37;;;;;;;;;;;3.20;99.50;;;;;;4423346;32;20017;-85
2021/01/17 12:19:08;;;;;;;;;;;3.20;99.60;;;;;;4410819;32;20010;-85
2021/01/17 12:21:35;;;;;;;;;;;3.30;99.70;;;;;;4422404;32;20059;-83
2021/01/17 12:24:05;;;;;;;;;;;3.20;99.60;;;;;;4422475;32;20051;-84
2021/01/17 12:26:32;;;;;;;;;;;3.30;99.60;;;;;;4422439;32;20009;-84
2021/01/17 12:28:58;;;;;;;;;;;3.30;99.90;;;;;;4423668;32;20007;-82
2021/01/17 12:31:26;;;;;;;;;;;3.30;99.50;;;;;;4423689;32;20055;-83
2021/01/17 12:33:55;;;;;;;;;;;3.30;99.50;;;;;;4422921;32;20018;-83
2021/01/17 12:36:22;;;;;;;;;;;3.30;99.50;;;;;;4422082;32;20055;-83
2021/01/17 12:38:50;;;;;;;;;;;3.20;99.50;;;;;;4423695;32;20008;-84
2021/01/17 12:41:21;;;;;;;;;;;3.20;99.40;;;;;;4421981;32;20041;-83
2021/01/17 12:43:48;;;;;;;;;;;3.20;99.40;;;;;;4422973;32;20071;-83
2021/01/17 12:46:17;;;;;;;;;;;3.20;99.40;;;;;;4422013;32;20010;-82
2021/01/17 12:48:44;;;;;;;;;;;3.20;99.50;;;;;;4421922;32;20044;-82
2021/01/17 12:51:16;;;;;;;;;;;3.20;99.50;;;;;;4422399;32;20015;-83
2021/01/17 12:53:43;;;;;;;;;;;3.20;99.50;;;;;;4434823;32;20023;-84
2021/01/17 12:56:15;;;;;;;;;;;3.20;99.50;;;;;;4423296;32;20078;-81
2021/01/17 12:58:44;;;;;;;;;;;3.30;99.60;;;;;;4422738;32;20007;-82
2021/01/17 13:01:12;;;;;;;;;;;3.30;99.50;;;;;;4422142;32;20021;-83
2021/01/17 13:03:39;;;;;;;;;;;3.30;99.90;;;;;;4408897;32;20310;-83
2021/01/17 13:06:09;;;;;;;;;;;3.30;99.50;;;;;;4421981;32;20041;-83
2021/01/17 13:08:36;;;;;;;;;;;3.30;99.50;;;;;;4421061;32;20045;-82
2021/01/17 13:11:04;;;;;;;;;;;3.30;99.50;;;;;;4421864;32;20007;-82
2021/01/17 13:13:31;;;;;;;;;;;3.30;99.50;;;;;;4420801;32;20440;-83
2021/01/17 13:16:02;;;;;;;;;;;3.30;99.50;;;;;;4421584;32;20007;-82
2021/01/17 13:18:34;;;;;;;;;;;3.30;99.50;;;;;;4421915;32;20422;-83
2021/01/17 13:21:02;;;;;;;;;;;3.30;99.50;;;;;;4421870;32;20426;-83
2021/01/17 13:23:32;;;;;;;;;;;3.30;99.50;;;;;;4422898;32;20121;-82
2021/01/17 13:26:01;;;;;;;;;;;3.40;99.60;;;;;;4421524;32;20329;-82
2021/01/17 13:28:28;;;;;;;;;;;3.40;99.60;;;;;;4421810;32;20011;-83
2021/01/17 13:30:55;;;;;;;;;;;3.40;99.50;;;;;;4419743;32;19999;-82
2021/01/17 13:33:22;;;;;;;;;;;3.40;99.50;;;;;;4422211;32;20015;-85
2021/01/17 13:35:49;;;;;;;;;;;3.40;99.50;;;;;;4422256;32;20022;-83
2021/01/17 13:38:20;;;;;;;;;;;3.50;99.50;;;;;;4420839;32;20454;-83
2021/01/17 13:40:48;;;;;;;;;;;3.40;99.50;;;;;;4421159;32;20047;-84
2021/01/17 13:43:15;;;;;;;;;;;3.40;99.50;;;;;;4420971;32;20015;-83
2021/01/17 13:45:41;;;;;;;;;;;3.40;99.50;;;;;;4420447;32;20399;-82
2021/01/17 13:48:08;;;;;;;;;;;3.40;99.50;;;;;;4420246;32;20022;-82
2021/01/17 13:50:38;;;;;;;;;;;3.50;99.50;;;;;;4407669;32;20032;-82
2021/01/17 13:53:07;;;;;;;;;;;3.40;99.50;;;;;;4420791;32;20461;-82
2021/01/17 13:55:38;;;;;;;;;;;3.40;99.50;;;;;;4421965;32;20059;-82
2021/01/17 13:58:04;;;;;;;;;;;3.40;99.90;;;;;;4422216;32;20008;-82
2021/01/17 14:00:31;;;;;;;;;;;3.40;99.50;;;;;;4420897;32;20028;-82
2021/01/17 14:03:04;;;;;;;;;;;3.40;99.60;;;;;;4433544;32;20008;-83
2021/01/17 14:05:33;;;;;;;;;;;3.50;99.60;;;;;;4421465;32;20003;-81
2021/01/17 14:08:02;;;;;;;;;;;3.50;99.60;;;;;;4421923;32;20008;-82
2021/01/17 14:10:35;;;;;;;;;;;3.40;99.50;;;;;;4420641;32;20000;-82
2021/01/17 14:13:02;;;;;;;;;;;3.50;99.60;;;;;;4420848;32;20051;-83
2021/01/17 14:15:29;;;;;;;;;;;3.50;99.60;;;;;;4421397;32;20071;-83
2021/01/17 14:17:56;;;;;;;;;;;3.50;99.60;;;;;;4421884;32;20469;-83
2021/01/17 14:20:24;;;;;;;;;;;3.50;99.60;;;;;;4420715;32;20000;-83
2021/01/17 14:22:51;;;;;;;;;;;3.50;99.70;;;;;;4420534;32;20430;-84
2021/01/17 14:25:18;;;;;;;;;;;3.50;99.60;;;;;;4421102;32;20008;-83
2021/01/17 14:27:45;;;;;;;;;;;3.50;99.70;;;;;;4422005;32;20008;-83
2021/01/17 14:30:12;;;;;;;;;;;3.60;99.80;;;;;;4421489;32;20015;-82
2021/01/17 14:32:39;;;;;;;;;;;3.70;99.80;;;;;;4420995;32;20069;-82
2021/01/17 14:35:07;;;;;;;;;;;3.70;99.70;;;;;;4421961;32;20011;-82
2021/01/17 14:37:34;;;;;;;;;;;3.70;99.70;;;;;;4420382;32;20031;-82
2021/01/17 14:40:01;;;;;;;;;;;3.70;99.70;;;;;;4420441;32;20110;-83
2021/01/17 14:42:31;;;;;;;;;;;3.80;99.70;;;;;;4420653;32;20056;-83
2021/01/17 14:45:00;;;;;;;;;;;3.80;99.60;;;;;;4420552;32;20116;-83
2021/01/17 14:47:27;;;;;;;;;;;3.80;99.70;;;;;;4433082;32;20034;-83